Time;durP1;ratioP1;P1;durP2;ratioP2;P2;SDS_P1;SDS_P2;PMS_P1;PMS_P2;Temp;Humidity;BMP_temperature;BMP_pressure;BME280_temperature;BME280_humidity;BME280_pressure;Samples;Min_cycle;Max_cycle;Signal;HPM_P1;HPM_P2
2022/09/08 00:01:48;;;;;;;29.10;23.45;;;17.50;99.90;;;;;;5054627;28;20033;-62
2022/09/08 00:04:14;;;;;;;27.88;23.77;;;17.30;99.90;;;;;;5055195;28;20052;-63
2022/09/08 00:06:40;;;;;;;31.15;23.02;;;17.60;99.90;;;;;;5054566;28;20048;-63
2022/09/08 00:09:06;;;;;;;29.75;23.30;;;17.70;99.90;;;;;;5053745;28;20041;-63
2022/09/08 00:11:33;;;;;;;29.85;24.50;;;16.80;99.90;;;;;;5054718;28;20033;-63
2022/09/08 00:14:04;;;;;;;26.52;23.67;;;17.90;99.90;;;;;;5053196;28;20049;-63
2022/09/08 00:16:30;;;;;;;29.73;24.35;;;;;;;;;;5053626;28;20091;-63
2022/09/08 00:18:56;;;;;;;28.33;24.35;;;17.50;99.90;;;;;;5054420;28;20393;-63
2022/09/08 00:21:25;;;;;;;30.25;25.10;;;17.40;99.90;;;;;;5054514;28;20033;-63
2022/09/08 00:23:51;;;;;;;28.52;24.83;;;17.30;99.90;;;;;;5054540;28;20439;-63
2022/09/08 00:26:19;;;;;;;32.70;25.02;;;17.40;99.90;;;;;;5054588;28;20048;-62
2022/09/08 00:28:44;;;;;;;28.15;25.02;;;16.80;99.90;;;;;;5054123;28;20040;-63
2022/09/08 00:31:13;;;;;;;28.13;25.13;;;16.60;99.90;;;;;;5054233;28;20140;-63
2022/09/08 00:33:39;;;;;;;30.90;25.70;;;17.30;99.90;;;;;;5054046;28;20110;-63
2022/09/08 00:36:06;;;;;;;30.85;25.50;;;17.30;99.90;;;;;;5053800;28;20549;-63
2022/09/08 00:38:32;;;;;;;29.15;25.73;;;16.60;99.90;;;;;;5054320;28;20097;-63
2022/09/08 00:40:58;;;;;;;35.72;26.75;;;17.70;99.90;;;;;;5054265;28;20430;-63
2022/09/08 00:43:40;;;;;;;29.52;26.15;;;17.60;99.90;;;;;;5054165;28;20053;-63
2022/09/08 00:46:08;;;;;;;31.35;26.42;;;17.20;99.90;;;;;;5053862;28;20044;-62
2022/09/08 00:48:40;;;;;;;34.20;26.33;;;17.30;99.90;;;;;;5053663;28;20045;-62
2022/09/08 00:51:07;;;;;;;31.83;26.88;;;17.30;99.90;;;;;;5053934;28;20044;-63
2022/09/08 00:53:37;;;;;;;31.85;27.13;;;17.30;99.90;;;;;;5053827;28;20041;-63
2022/09/08 00:56:05;;;;;;;31.80;27.65;;;17.30;99.90;;;;;;5053883;28;20037;-63
2022/09/08 00:58:36;;;;;;;33.80;26.27;;;17.20;99.90;;;;;;5053911;28;20037;-63
2022/09/08 01:01:02;;;;;;;32.65;27.63;;;17.20;99.90;;;;;;5052509;28;20049;-62
2022/09/08 01:03:31;;;;;;;31.13;27.15;;;;;;;;;;5053370;28;20048;-62
2022/09/08 01:12:43;;;;;;;33.70;28.48;;;17.50;99.90;;;;;;5053695;28;20407;-63
2022/09/08 01:14:52;;;;;;;35.97;26.65;;;17.40;99.90;;;;;;5053472;28;20052;-63
2022/09/08 01:17:21;;;;;;;33.08;27.40;;;17.40;99.90;;;;;;5053483;28;20037;-63
2022/09/08 01:19:48;;;;;;;28.55;25.35;;;17.40;99.90;;;;;;5053170;28;20052;-63
2022/09/08 01:22:39;;;;;;;30.77;27.02;;;17.30;99.90;;;;;;5053542;28;20145;-63
2022/09/08 01:25:14;;;;;;;29.85;25.85;;;17.50;99.90;;;;;;5053587;28;20212;-62
2022/09/08 01:27:40;;;;;;;29.77;26.25;;;17.50;99.90;;;;;;5053500;28;20139;-62
2022/09/08 01:30:10;;;;;;;35.25;26.48;;;17.60;99.90;;;;;;5052975;28;20059;-62
2022/09/08 01:32:38;;;;;;;31.10;26.58;;;18.60;99.90;;;;;;5053109;28;20492;-62
2022/09/08 01:35:06;;;;;;;33.15;26.92;;;17.60;99.90;;;;;;5052961;28;20044;-63
2022/09/08 01:37:32;;;;;;;30.30;26.42;;;;;;;;;;5053097;28;20037;-63
2022/09/08 01:39:59;;;;;;;29.77;25.67;;;17.60;99.90;;;;;;5053321;28;20055;-62
2022/09/08 01:42:25;;;;;;;30.23;25.92;;;17.40;99.90;;;;;;5053252;28;20090;-63
2022/09/08 01:44:50;;;;;;;30.63;26.67;;;17.60;99.90;;;;;;5052789;28;20444;-62
2022/09/08 01:47:16;;;;;;;32.42;26.80;;;;;;;;;;5053062;28;20040;-62
2022/09/08 01:49:42;;;;;;;32.97;26.52;;;18.10;99.90;;;;;;5053152;28;20385;-62
2022/09/08 01:52:08;;;;;;;31.58;27.05;;;17.20;99.90;;;;;;5052935;28;20048;-62
2022/09/08 01:54:34;;;;;;;31.63;26.92;;;17.30;99.90;;;;;;5051866;28;20063;-62
2022/09/08 01:57:00;;;;;;;30.33;26.90;;;17.70;99.90;;;;;;5052915;28;20119;-62
2022/09/08 01:59:26;;;;;;;34.08;27.48;;;17.70;99.90;;;;;;5052628;28;20090;-63
2022/09/08 02:01:52;;;;;;;31.83;28.02;;;17.60;99.90;;;;;;5052839;28;20124;-63
2022/09/08 02:04:18;;;;;;;34.63;27.90;;;17.70;99.90;;;;;;5052703;28;20128;-63
2022/09/08 02:06:45;;;;;;;32.72;28.92;;;17.70;99.90;;;;;;5053085;28;20045;-62
2022/09/08 02:09:12;;;;;;;34.90;28.67;;;17.40;99.90;;;;;;5052945;28;20393;-62
2022/09/08 02:11:38;;;;;;;34.25;28.10;;;17.60;99.90;;;;;;5052657;28;20033;-62
2022/09/08 02:14:04;;;;;;;32.88;28.95;;;17.10;99.90;;;;;;5052902;28;20052;-63
2022/09/08 02:16:30;;;;;;;34.75;29.23;;;17.90;99.90;;;;;;5052972;28;20116;-63
2022/09/08 02:18:56;;;;;;;37.58;29.45;;;17.60;99.90;;;;;;5053036;28;20167;-63
2022/09/08 02:21:24;;;;;;;35.60;29.55;;;17.70;99.90;;;;;;5052605;28;20046;-62
2022/09/08 02:23:50;;;;;;;36.10;30.58;;;17.80;99.90;;;;;;5052673;28;20040;-62
2022/09/08 02:26:23;;;;;;;35.13;30.75;;;17.30;99.90;;;;;;5052746;28;20044;-63
2022/09/08 02:28:51;;;;;;;36.40;30.65;;;;;;;;;;5052878;28;20160;-62
2022/09/08 02:31:17;;;;;;;35.60;30.92;;;17.70;99.90;;;;;;5051487;28;20069;-62
2022/09/08 02:33:43;;;;;;;38.40;30.55;;;17.50;99.90;;;;;;5055895;28;20126;-63
2022/09/08 02:36:09;;;;;;;35.83;31.15;;;17.80;99.90;;;;;;5056404;28;20037;-63
2022/09/08 02:38:36;;;;;;;34.85;31.05;;;17.70;99.90;;;;;;5056248;28;20481;-62
2022/09/08 02:41:01;;;;;;;36.05;29.85;;;17.90;99.90;;;;;;5055126;28;20092;-63
2022/09/08 02:43:29;;;;;;;39.38;30.77;;;17.70;99.90;;;;;;5056550;28;20045;-63
2022/09/08 02:45:54;;;;;;;36.47;29.77;;;17.60;99.90;;;;;;5056538;28;20045;-63
2022/09/08 02:48:21;;;;;;;36.67;30.58;;;17.00;99.90;;;;;;5056315;28;20504;-62
2022/09/08 02:50:46;;;;;;;36.67;31.40;;;17.60;99.90;;;;;;5055938;28;20551;-63
2022/09/08 02:53:12;;;;;;;32.80;28.80;;;17.70;99.90;;;;;;5056139;28;20064;-62
2022/09/08 02:55:39;;;;;;;34.13;30.27;;;17.70;99.90;;;;;;5055829;28;20392;-62
2022/09/08 02:58:07;;;;;;;37.63;30.20;;;17.60;99.90;;;;;;5056110;28;20045;-62
2022/09/08 03:00:36;;;;;;;34.55;29.77;;;17.80;99.90;;;;;;5056058;28;20033;-62
2022/09/08 03:03:02;;;;;;;33.95;29.80;;;17.70;99.90;;;;;;5055659;28;20057;-63
2022/09/08 03:05:28;;;;;;;35.05;29.58;;;17.70;99.90;;;;;;5056060;28;20041;-62
2022/09/08 03:07:54;;;;;;;36.72;30.88;;;17.60;99.90;;;;;;5056064;28;20055;-63
2022/09/08 03:10:23;;;;;;;35.65;30.13;;;17.60;99.90;;;;;;5055544;28;20041;-63
2022/09/08 03:12:50;;;;;;;38.30;30.77;;;17.70;99.90;;;;;;5055681;28;20045;-63
2022/09/08 03:15:16;;;;;;;37.55;30.35;;;17.80;99.90;;;;;;5055747;28;20033;-63
2022/09/08 03:17:41;;;;;;;35.22;30.02;;;17.90;99.90;;;;;;5055646;28;20508;-63
2022/09/08 03:20:09;;;;;;;36.65;30.05;;;17.90;99.90;;;;;;5055700;28;20105;-63
2022/09/08 03:22:34;;;;;;;38.00;30.35;;;17.90;99.90;;;;;;5055359;28;20145;-63
2022/09/08 03:25:01;;;;;;;34.88;30.25;;;17.70;99.90;;;;;;5055594;28;20123;-63
2022/09/08 03:27:27;;;;;;;38.90;30.60;;;17.70;99.90;;;;;;5055544;28;20068;-63
2022/09/08 03:29:54;;;;;;;39.17;29.95;;;18.00;99.90;;;;;;5055324;28;20500;-63
2022/09/08 03:32:20;;;;;;;36.63;30.98;;;17.70;99.90;;;;;;5055274;28;20508;-62
2022/09/08 03:34:46;;;;;;;35.33;31.25;;;17.50;99.90;;;;;;5055314;28;20033;-63
2022/09/08 03:37:13;;;;;;;37.40;32.30;;;17.80;99.90;;;;;;5055345;28;20037;-63
2022/09/08 03:39:39;;;;;;;36.38;31.67;;;17.70;99.90;;;;;;5055076;28;20394;-63
2022/09/08 03:42:08;;;;;;;35.25;31.08;;;17.70;99.90;;;;;;5055210;28;20040;-63
2022/09/08 03:44:34;;;;;;;35.88;31.27;;;17.70;99.90;;;;;;5055047;28;20041;-63
2022/09/08 03:47:00;;;;;;;38.53;31.98;;;17.90;99.90;;;;;;5055070;28;20037;-62
2022/09/08 03:49:26;;;;;;;38.33;31.95;;;17.50;99.90;;;;;;5055126;28;20397;-63
2022/09/08 03:51:52;;;;;;;39.88;32.20;;;17.70;99.90;;;;;;5054727;28;20037;-63
2022/09/08 03:57:02;;;;;;;38.10;33.70;;;16.90;99.90;;;;;;5054857;28;20095;-63
2022/09/08 03:59:28;;;;;;;41.88;33.83;;;17.70;99.90;;;;;;5054945;28;20036;-63
2022/09/08 04:01:54;;;;;;;41.17;33.85;;;17.40;99.90;;;;;;5054769;28;20451;-63
2022/09/08 04:04:22;;;;;;;41.80;33.55;;;17.60;99.90;;;;;;5054859;28;20041;-63
2022/09/08 04:06:49;;;;;;;41.35;34.45;;;17.70;99.90;;;;;;5069913;28;20125;-63
2022/09/08 04:09:15;;;;;;;39.83;34.03;;;17.70;99.90;;;;;;5054825;28;20123;-63
2022/09/08 04:11:41;;;;;;;39.20;34.50;;;17.30;99.90;;;;;;5054614;28;20063;-63
2022/09/08 04:14:08;;;;;;;42.90;35.13;;;17.60;99.90;;;;;;5054478;28;20481;-63
2022/09/08 04:16:34;;;;;;;44.03;36.00;;;18.00;99.90;;;;;;5054986;28;20037;-63
2022/09/08 04:18:59;;;;;;;41.63;35.58;;;17.50;99.90;;;;;;5054306;28;20119;-63
2022/09/08 04:21:25;;;;;;;43.88;36.42;;;17.60;99.90;;;;;;5054641;28;20126;-63
2022/09/08 04:23:51;;;;;;;41.90;36.10;;;17.70;99.90;;;;;;5054399;28;20041;-63
2022/09/08 04:26:17;;;;;;;40.45;34.85;;;17.40;99.90;;;;;;5054597;28;20115;-63
2022/09/08 04:28:43;;;;;;;46.67;36.22;;;;;;;;;;5054392;28;20039;-63
2022/09/08 04:31:14;;;;;;;47.70;37.60;;;17.30;99.90;;;;;;5054166;28;20041;-63
2022/09/08 04:33:40;;;;;;;46.42;37.00;;;18.10;99.90;;;;;;5054070;28;20047;-63
2022/09/08 04:36:08;;;;;;;43.15;36.08;;;17.00;99.90;;;;;;5054046;28;20120;-63
2022/09/08 04:38:34;;;;;;;44.03;37.35;;;;;;;;;;5036138;28;20214;-63
2022/09/08 04:41:08;;;;;;;44.35;36.88;;;17.50;99.90;;;;;;5053086;28;20435;-63
2022/09/08 04:43:35;;;;;;;44.67;37.40;;;17.00;99.90;;;;;;5054156;28;20405;-63
2022/09/08 04:46:09;;;;;;;50.70;38.47;;;17.60;99.90;;;;;;5054070;28;20098;-63
2022/09/08 04:48:36;;;;;;;44.88;38.63;;;17.30;99.90;;;;;;5052693;28;20083;-63
2022/09/08 04:51:02;;;;;;;43.30;37.30;;;17.40;99.90;;;;;;5052501;28;20072;-63
2022/09/08 04:53:31;;;;;;;47.50;38.35;;;17.20;99.90;;;;;;5053866;28;20060;-63
2022/09/08 04:55:57;;;;;;;44.88;37.85;;;;;;;;;;5053330;28;20033;-63
2022/09/08 04:58:23;;;;;;;47.97;39.08;;;;;;;;;;5053572;28;20119;-63
2022/09/08 05:00:49;;;;;;;46.33;37.97;;;17.90;99.90;;;;;;5052782;28;20051;-63
2022/09/08 05:03:16;;;;;;;48.60;39.72;;;17.90;99.90;;;;;;5053637;28;20477;-63
2022/09/08 05:05:42;;;;;;;47.58;39.17;;;17.50;99.90;;;;;;5053539;28;20048;-63
2022/09/08 05:08:08;;;;;;;50.85;39.88;;;17.20;99.90;;;;;;5053726;28;20042;-63
2022/09/08 05:10:34;;;;;;;47.63;37.85;;;17.30;99.90;;;;;;5053347;28;20106;-57
2022/09/08 05:13:00;;;;;;;46.17;37.20;;;17.40;99.90;;;;;;5053274;28;20037;-57
2022/09/08 05:15:27;;;;;;;48.38;40.65;;;17.30;99.90;;;;;;5053543;28;20120;-57
2022/09/08 05:17:54;;;;;;;49.83;39.00;;;17.10;99.90;;;;;;5053375;28;20037;-57
2022/09/08 05:20:20;;;;;;;56.92;40.40;;;17.20;99.90;;;;;;5053457;28;20064;-58
2022/09/08 05:22:46;;;;;;;49.83;39.63;;;17.30;99.90;;;;;;5068662;28;20044;-57
2022/09/08 05:25:12;;;;;;;51.10;40.53;;;17.30;99.90;;;;;;5053147;28;20102;-57
2022/09/08 05:27:38;;;;;;;51.25;40.88;;;;;;;;;;5071209;28;20040;-57
2022/09/08 05:30:05;;;;;;;52.65;40.90;;;16.80;99.90;;;;;;5073309;28;20106;-57
2022/09/08 05:32:33;;;;;;;52.28;41.13;;;17.30;99.90;;;;;;5073084;28;20036;-57
2022/09/08 05:34:59;;;;;;;51.60;38.90;;;17.50;99.90;;;;;;5073146;28;20033;-57
2022/09/08 05:37:28;;;;;;;54.65;42.30;;;17.10;99.90;;;;;;5073105;28;20116;-57
2022/09/08 05:39:54;;;;;;;55.83;41.88;;;17.30;99.90;;;;;;5073218;28;20090;-57
2022/09/08 05:42:20;;;;;;;50.35;39.65;;;17.20;99.90;;;;;;5073108;28;20464;-57
2022/09/08 05:44:46;;;;;;;49.78;41.03;;;;;;;;;;5072936;28;20119;-57
2022/09/08 05:47:11;;;;;;;52.15;41.08;;;17.80;99.90;;;;;;5073147;28;20052;-57
2022/09/08 05:49:37;;;;;;;51.38;41.28;;;17.50;99.90;;;;;;5072832;28;20036;-57
2022/09/08 05:52:03;;;;;;;54.80;42.00;;;;;;;;;;5073005;28;20032;-57
2022/09/08 05:54:29;;;;;;;52.80;40.53;;;17.30;99.90;;;;;;5072841;28;20492;-57
2022/09/08 05:56:55;;;;;;;52.15;41.22;;;;;;;;;;5072330;28;20037;-57
2022/09/08 05:59:20;;;;;;;53.03;41.05;;;17.60;99.90;;;;;;5072753;28;20044;-57
2022/09/08 06:01:46;;;;;;;55.35;41.75;;;18.00;99.90;;;;;;5072895;28;20037;-58
2022/09/08 06:04:12;;;;;;;51.83;41.45;;;17.60;99.90;;;;;;5072547;28;20389;-57
2022/09/08 06:06:38;;;;;;;50.75;40.80;;;17.50;99.90;;;;;;5072891;28;20385;-57
2022/09/08 06:09:04;;;;;;;59.15;43.05;;;17.60;99.90;;;;;;5076220;28;20052;-57
2022/09/08 06:11:31;;;;;;;62.33;43.78;;;17.50;99.90;;;;;;5076689;28;20041;-57
2022/09/08 06:13:58;;;;;;;61.20;44.60;;;17.50;99.90;;;;;;5076759;28;20119;-57
2022/09/08 06:16:25;;;;;;;58.47;44.63;;;17.50;99.90;;;;;;5076826;28;20373;-57
2022/09/08 06:18:52;;;;;;;62.35;45.97;;;17.50;99.90;;;;;;5076706;28;20072;-56
2022/09/08 06:21:24;;;;;;;62.95;47.00;;;17.50;99.90;;;;;;5075677;28;20029;-63
2022/09/08 06:23:56;;;;;;;71.57;49.28;;;16.90;99.90;;;;;;5076435;28;20383;-64
2022/09/08 06:26:39;;;;;;;72.35;48.42;;;17.50;99.90;;;;;;5076257;28;20511;-66
2022/09/08 06:29:29;;;;;;;75.40;50.72;;;17.40;99.90;;;;;;5075547;28;20052;-66
2022/09/08 06:32:09;;;;;;;57.20;41.20;;;17.60;99.90;;;;;;5076450;28;20037;-66
2022/09/08 06:34:42;;;;;;;59.15;42.00;;;17.60;99.90;;;;;;5076674;28;20036;-66
2022/09/08 06:37:22;;;;;;;58.35;43.42;;;17.50;99.90;;;;;;5076349;28;20051;-65
2022/09/08 06:39:58;;;;;;;72.25;49.83;;;17.70;99.90;;;;;;5053412;28;20562;-57
2022/09/08 06:42:42;;;;;;;83.70;50.45;;;17.50;99.90;;;;;;5071371;28;20123;-57
2022/09/08 06:45:21;;;;;;;67.97;40.58;;;17.30;99.90;;;;;;5072102;28;20048;-57
2022/09/08 06:47:55;;;;;;;86.65;44.05;;;17.20;99.90;;;;;;5073493;28;20086;-57
2022/09/08 06:50:22;;;;;;;43.70;29.52;;;17.10;99.90;;;;;;5072960;28;20067;-57
2022/09/08 06:52:50;;;;;;;33.50;23.55;;;17.30;99.90;;;;;;5073255;28;20373;-57
2022/09/08 06:55:39;;;;;;;37.50;25.83;;;17.20;99.90;;;;;;5073126;28;20056;-62
2022/09/08 06:58:05;;;;;;;40.17;28.52;;;16.50;99.90;;;;;;5078219;28;20058;-65
2022/09/08 07:00:41;;;;;;;56.38;30.27;;;17.30;99.90;;;;;;5074506;28;20045;-66
2022/09/08 07:03:16;;;;;;;67.20;34.42;;;17.70;99.90;;;;;;5049776;28;20059;-67
2022/09/08 07:06:04;;;;;;;30.85;26.30;;;17.10;99.90;;;;;;5070710;28;20036;-66
2022/09/08 07:09:03;;;;;;;35.28;27.50;;;17.00;99.90;;;;;;5070775;28;20567;-65
2022/09/08 07:11:50;;;;;;;36.75;29.10;;;16.90;99.90;;;;;;5066468;28;20581;-66
2022/09/08 07:14:22;;;;;;;42.83;32.08;;;17.00;99.90;;;;;;5072814;28;20040;-65
2022/09/08 07:16:58;;;;;;;47.35;32.63;;;17.20;99.90;;;;;;5068197;28;20059;-65
2022/09/08 07:19:32;;;;;;;44.15;32.90;;;17.90;99.90;;;;;;5073851;28;20428;-65
2022/09/08 07:22:11;;;;;;;47.15;35.22;;;17.00;99.90;;;;;;5057406;28;20037;-65
2022/09/08 07:24:41;;;;;;;50.10;34.10;;;16.80;99.90;;;;;;5073018;28;20036;-65
2022/09/08 07:27:13;;;;;;;44.22;31.75;;;16.80;99.90;;;;;;5073220;28;20493;-64
2022/09/08 07:29:44;;;;;;;39.50;30.15;;;17.20;99.90;;;;;;5073150;28;20045;-64
2022/09/08 07:32:17;;;;;;;41.72;31.02;;;17.10;99.90;;;;;;5071779;28;20537;-57
2022/09/08 07:34:52;;;;;;;43.22;31.00;;;17.00;99.90;;;;;;5071272;28;20031;-57
2022/09/08 07:37:35;;;;;;;46.45;32.83;;;17.20;99.90;;;;;;5073304;28;20107;-57
2022/09/08 07:40:28;;;;;;;48.00;33.15;;;17.60;99.90;;;;;;5070594;28;20072;-57
2022/09/08 07:42:58;;;;;;;43.25;32.92;;;17.20;99.90;;;;;;5072261;28;20568;-57
2022/09/08 07:45:37;;;;;;;45.53;33.70;;;17.30;99.90;;;;;;5062175;28;20047;-57
2022/09/08 07:48:24;;;;;;;51.25;35.25;;;17.10;99.90;;;;;;5064945;28;20032;-57
2022/09/08 07:51:18;;;;;;;47.70;35.53;;;17.30;99.90;;;;;;5066508;28;20041;-56
2022/09/08 07:53:57;;;;;;;53.47;38.60;;;17.40;99.90;;;;;;5069423;28;20048;-56
2022/09/08 07:56:40;;;;;;;64.68;40.42;;;16.70;99.90;;;;;;5069318;28;20044;-57
2022/09/08 07:59:43;;;;;;;53.40;39.40;;;17.30;99.90;;;;;;5067397;28;20553;-57
2022/09/08 08:02:44;;;;;;;60.75;41.85;;;17.20;99.90;;;;;;5017803;28;1070592;-64
2022/09/08 08:05:10;;;;;;;67.05;43.05;;;;;;;;;;5044048;28;20056;-64
2022/09/08 08:08:07;;;;;;;70.30;46.00;;;17.20;99.90;;;;;;5056617;28;20033;-65
2022/09/08 08:11:03;;;;;;;61.85;42.30;;;17.20;99.90;;;;;;5060438;28;20052;-56
2022/09/08 08:14:07;;;;;;;71.72;45.38;;;17.20;99.90;;;;;;4975501;28;20097;-56
2022/09/08 08:16:51;;;;;;;69.47;46.22;;;17.20;99.90;;;;;;4972964;28;20065;-56
2022/09/08 08:19:32;;;;;;;81.28;49.05;;;17.40;99.90;;;;;;4973154;28;20039;-56
2022/09/08 08:22:07;;;;;;;79.95;49.15;;;17.30;99.90;;;;;;4974449;28;20130;-56
2022/09/08 08:24:46;;;;;;;85.25;50.90;;;16.70;99.90;;;;;;4973327;28;20039;-56
2022/09/08 08:27:27;;;;;;;77.68;49.92;;;17.10;99.90;;;;;;4973735;28;20164;-56
2022/09/08 08:30:02;;;;;;;81.95;50.17;;;17.40;99.90;;;;;;4971829;28;20046;-56
2022/09/08 08:32:36;;;;;;;79.22;49.08;;;17.20;99.90;;;;;;4989587;28;20038;-56
2022/09/08 08:35:39;;;;;;;67.47;43.95;;;17.80;99.90;;;;;;4987845;28;20035;-56
2022/09/08 08:38:05;;;;;;;62.28;40.28;;;17.20;99.90;;;;;;5008887;28;20049;-56
2022/09/08 08:40:45;;;;;;;48.42;32.75;;;16.30;99.90;;;;;;4993857;28;20049;-56
2022/09/08 08:43:29;;;;;;;43.80;28.30;;;17.10;99.90;;;;;;5010438;28;20133;-57
2022/09/08 08:46:14;;;;;;;38.15;25.38;;;17.10;99.90;;;;;;5010894;28;20052;-56
2022/09/08 08:48:59;;;;;;;36.37;23.77;;;17.40;99.90;;;;;;5010819;28;20088;-56
2022/09/08 08:51:39;;;;;;;36.47;25.05;;;17.20;99.90;;;;;;5068658;28;20045;-56
2022/09/08 08:54:35;;;;;;;38.92;26.25;;;17.10;99.90;;;;;;5072745;28;20041;-56
2022/09/08 08:57:35;;;;;;;34.03;23.10;;;17.20;99.90;;;;;;5072613;28;20040;-65
2022/09/08 09:00:19;;;;;;;32.33;22.95;;;17.20;99.90;;;;;;5071603;28;20051;-56
2022/09/08 09:03:00;;;;;;;31.30;21.08;;;17.00;99.90;;;;;;5071147;28;20091;-56
2022/09/08 09:05:42;;;;;;;32.75;21.40;;;17.00;99.90;;;;;;5073619;28;20045;-57
2022/09/08 09:08:47;;;;;;;24.75;16.92;;;17.20;99.90;;;;;;5073238;28;20181;-56
2022/09/08 09:11:38;;;;;;;23.40;17.02;;;17.20;99.90;;;;;;5022627;28;20132;-57
2022/09/08 09:14:46;;;;;;;27.35;18.63;;;17.40;99.90;;;;;;5030512;28;20484;-56
2022/09/08 09:17:42;;;;;;;28.23;20.40;;;17.80;99.90;;;;;;5029882;28;20033;-63
2022/09/08 09:20:21;;;;;;;;;;;17.50;99.90;;;;;;5030497;28;20037;-63
2022/09/08 09:22:56;;;;;;;25.13;17.50;;;17.70;99.90;;;;;;5024390;28;19940;-64
2022/09/08 09:25:35;;;;;;;27.67;18.13;;;17.40;99.90;;;;;;5029801;28;20041;-63
2022/09/08 09:28:26;;;;;;;28.90;18.17;;;17.40;99.90;;;;;;5029631;28;20052;-63
2022/09/08 09:31:38;;;;;;;21.85;15.50;;;17.20;99.90;;;;;;5028952;28;20080;-63
2022/09/08 09:34:40;;;;;;;25.30;17.10;;;16.60;99.90;;;;;;5028069;28;20328;-64
2022/09/08 09:37:24;;;;;;;21.73;16.03;;;17.60;99.90;;;;;;5029712;28;20045;-63
2022/09/08 09:40:27;;;;;;;17.70;13.82;;;17.60;99.90;;;;;;5030045;28;20485;-63
2022/09/08 09:43:04;;;;;;;20.02;13.82;;;17.70;99.90;;;;;;5029785;28;20033;-63
2022/09/08 09:45:53;;;;;;;16.65;11.80;;;18.00;99.90;;;;;;5029833;28;20424;-63
2022/09/08 09:48:45;;;;;;;14.82;11.05;;;17.80;99.90;;;;;;5056515;28;20045;-63
2022/09/08 09:51:36;;;;;;;17.27;11.13;;;17.80;99.90;;;;;;5071386;28;20048;-63
2022/09/08 09:54:25;;;;;;;12.95;10.07;;;17.40;99.90;;;;;;5070043;28;20036;-56
2022/09/08 09:57:19;;;;;;;11.30;8.73;;;17.90;99.90;;;;;;5071271;28;20041;-57
2022/09/08 10:00:14;;;;;;;10.32;7.90;;;17.50;99.90;;;;;;5072123;28;20072;-57
2022/09/08 10:02:56;;;;;;;8.98;7.13;;;17.50;99.90;;;;;;5071282;28;20053;-57
2022/09/08 10:05:49;;;;;;;11.57;8.15;;;17.60;99.90;;;;;;5071745;28;20044;-56
2022/09/08 10:08:28;;;;;;;10.02;7.60;;;17.20;99.90;;;;;;5072187;28;20507;-56
2022/09/08 10:11:11;;;;;;;8.35;6.95;;;17.50;99.90;;;;;;5071454;28;20078;-56
2022/09/08 10:13:40;;;;;;;10.10;6.18;;;17.30;99.90;;;;;;5072702;28;20076;-56
2022/09/08 10:16:51;;;;;;;10.63;7.00;;;17.30;99.90;;;;;;5072792;28;20407;-56
2022/09/08 10:19:52;;;;;;;6.70;5.50;;;17.50;99.90;;;;;;5052632;28;20052;-56
2022/09/08 10:22:45;;;;;;;9.32;5.50;;;17.20;99.90;;;;;;5071483;28;20029;-57
2022/09/08 10:25:34;;;;;;;7.07;4.00;;;17.20;99.90;;;;;;5069027;28;20427;-56
2022/09/08 10:28:28;;;;;;;12.68;6.80;;;17.60;99.90;;;;;;5072771;28;20383;-56
2022/09/08 10:31:52;;;;;;;6.80;4.38;;;17.50;99.90;;;;;;5072218;28;20400;-56
2022/09/08 10:34:38;;;;;;;8.10;4.32;;;17.40;99.90;;;;;;5040348;28;20048;-56
2022/09/08 10:37:16;;;;;;;6.78;3.67;;;17.10;99.90;;;;;;5041778;28;20036;-56
2022/09/08 10:39:56;;;;;;;6.88;4.32;;;17.60;99.90;;;;;;5038907;28;20057;-56
2022/09/08 10:42:37;;;;;;;10.38;4.05;;;17.80;99.90;;;;;;5036541;28;20464;-56
2022/09/08 10:45:23;;;;;;;5.75;3.80;;;17.70;99.90;;;;;;5042506;28;20088;-56
2022/09/08 10:47:57;;;;;;;8.05;4.13;;;17.50;99.90;;;;;;5042686;28;20040;-56
2022/09/08 10:50:31;;;;;;;9.07;3.87;;;17.50;99.90;;;;;;5039116;28;20390;-56
2022/09/08 10:53:00;;;;;;;7.85;4.28;;;17.10;99.90;;;;;;5049369;28;20291;-56
2022/09/08 10:55:45;;;;;;;7.68;4.50;;;17.70;99.90;;;;;;5051925;28;20110;-56
2022/09/08 10:58:16;;;;;;;6.90;4.30;;;17.60;99.90;;;;;;5036193;28;20041;-57
2022/09/08 11:01:00;;;;;;;7.97;4.53;;;17.50;99.90;;;;;;5032299;28;20425;-56
2022/09/08 11:03:43;;;;;;;6.65;4.53;;;17.60;99.90;;;;;;5032422;28;20061;-55
2022/09/08 11:06:25;;;;;;;7.03;4.05;;;17.40;99.90;;;;;;5037946;28;20045;-56
2022/09/08 11:09:34;;;;;;;6.63;4.10;;;17.70;99.90;;;;;;5052584;28;20052;-56
2022/09/08 11:12:06;;;;;;;6.70;4.07;;;17.80;99.90;;;;;;5055760;28;20037;-56
2022/09/08 11:14:54;;;;;;;4.72;4.00;;;17.70;99.90;;;;;;5055976;28;20362;-56
2022/09/08 11:17:26;;;;;;;8.35;4.53;;;17.50;99.90;;;;;;5070573;28;20033;-56
2022/09/08 11:20:07;;;;;;;7.32;4.00;;;17.40;99.90;;;;;;5075432;28;20388;-56
2022/09/08 11:22:32;;;;;;;5.72;4.13;;;17.80;99.90;;;;;;5075397;28;20041;-56
2022/09/08 11:25:10;;;;;;;7.88;4.47;;;17.20;99.90;;;;;;5074094;28;20044;-56
2022/09/08 11:27:48;;;;;;;9.48;4.22;;;17.40;99.90;;;;;;5075624;28;20040;-56
2022/09/08 11:30:34;;;;;;;6.18;4.30;;;17.30;99.90;;;;;;5075114;28;20120;-56
2022/09/08 11:33:26;;;;;;;7.90;4.70;;;17.50;99.90;;;;;;5075732;28;20033;-56
2022/09/08 11:36:03;;;;;;;8.85;4.60;;;17.50;99.90;;;;;;5075957;28;20071;-56
2022/09/08 11:38:47;;;;;;;6.20;4.43;;;17.80;99.90;;;;;;5074627;28;20132;-56
2022/09/08 11:41:21;;;;;;;9.43;5.30;;;17.60;99.90;;;;;;5075270;28;20539;-56
2022/09/08 11:44:06;;;;;;;7.07;4.73;;;17.50;99.90;;;;;;5075717;28;20490;-56
2022/09/08 11:46:35;;;;;;;7.20;5.20;;;17.40;99.90;;;;;;5075251;28;20071;-56
2022/09/08 11:49:04;;;;;;;8.90;5.20;;;17.50;99.90;;;;;;5075180;28;20098;-56
2022/09/08 11:51:46;;;;;;;9.15;5.15;;;17.50;99.90;;;;;;5075197;28;20052;-57
2022/09/08 11:54:36;;;;;;;6.75;5.53;;;18.30;99.90;;;;;;5075100;28;20037;-57
2022/09/08 11:57:30;;;;;;;10.98;5.78;;;17.30;99.90;;;;;;5075075;28;20157;-57
2022/09/08 12:00:14;;;;;;;8.65;6.05;;;17.20;99.90;;;;;;5075168;28;20079;-57
2022/09/08 12:03:21;;;;;;;7.15;5.72;;;17.50;99.90;;;;;;5074656;28;20516;-56
2022/09/08 12:05:52;;;;;;;8.75;5.88;;;17.10;99.90;;;;;;5073618;28;20522;-56
2022/09/08 12:08:52;;;;;;;8.15;6.00;;;17.90;99.90;;;;;;5074640;28;20514;-56
2022/09/08 12:11:24;;;;;;;8.90;6.18;;;17.90;99.90;;;;;;5074778;28;20040;-56
2022/09/08 12:14:14;;;;;;;11.50;6.18;;;17.60;99.90;;;;;;5074574;28;20118;-56
2022/09/08 12:16:56;;;;;;;11.32;6.30;;;17.80;99.90;;;;;;5072767;28;20045;-56
2022/09/08 12:19:51;;;;;;;9.38;6.18;;;18.00;99.90;;;;;;5074834;28;20041;-56
2022/09/08 12:22:36;;;;;;;9.00;6.65;;;17.60;99.90;;;;;;5051896;28;20041;-56
2022/09/08 12:25:33;;;;;;;9.55;7.07;;;17.60;99.90;;;;;;5052295;28;20037;-56
2022/09/08 12:28:10;;;;;;;9.75;6.50;;;17.90;99.90;;;;;;5049753;28;20056;-56
2022/09/08 12:31:00;;;;;;;9.68;7.03;;;17.90;99.90;;;;;;5051465;28;20120;-56
2022/09/08 12:34:16;;;;;;;10.10;7.10;;;18.10;99.90;;;;;;5051507;28;20579;-56
2022/09/08 12:37:04;;;;;;;9.30;7.30;;;17.90;99.90;;;;;;5010091;28;20072;-56
2022/09/08 12:39:56;;;;;;;10.93;8.40;;;18.00;99.90;;;;;;5051452;28;20049;-57
2022/09/08 12:42:47;;;;;;;11.25;8.27;;;18.10;99.90;;;;;;5051867;28;20075;-56
2022/09/08 12:45:27;;;;;;;11.70;7.93;;;18.10;99.90;;;;;;5051789;28;20040;-56
2022/09/08 12:48:11;;;;;;;10.00;7.78;;;18.30;99.90;;;;;;5051950;28;20508;-56
2022/09/08 12:50:44;;;;;;;11.38;8.30;;;18.40;99.90;;;;;;5051796;28;20041;-56
2022/09/08 12:53:37;;;;;;;10.02;7.72;;;18.50;99.90;;;;;;5051896;28;20049;-56
2022/09/08 12:56:19;;;;;;;10.05;7.75;;;18.60;99.90;;;;;;5051812;28;20041;-56
2022/09/08 12:59:21;;;;;;;11.55;8.55;;;18.80;99.90;;;;;;5058571;28;20068;-56
2022/09/08 13:02:13;;;;;;;12.68;10.25;;;19.00;99.90;;;;;;5073942;28;20116;-57
2022/09/08 13:04:57;;;;;;;10.38;9.25;;;18.90;99.90;;;;;;5068792;28;20553;-63
2022/09/08 13:07:41;;;;;;;12.15;9.00;;;18.40;99.90;;;;;;5073777;28;20032;-63
2022/09/08 13:10:09;;;;;;;13.18;9.20;;;18.70;99.90;;;;;;5073387;28;20047;-63
2022/09/08 13:12:45;;;;;;;10.63;9.07;;;19.10;99.90;;;;;;5073736;28;20041;-63
2022/09/08 13:15:21;;;;;;;14.95;9.63;;;20.20;99.90;;;;;;5073644;28;20127;-64
2022/09/08 13:17:57;;;;;;;13.05;9.90;;;19.20;99.90;;;;;;5073207;28;20064;-64
2022/09/08 13:20:41;;;;;;;18.48;10.57;;;19.50;99.90;;;;;;5073395;28;20036;-63
2022/09/08 13:23:34;;;;;;;14.07;9.80;;;19.40;99.90;;;;;;5071026;28;20048;-63
2022/09/08 13:26:13;;;;;;;12.93;10.45;;;19.80;99.90;;;;;;5072263;28;20063;-63
2022/09/08 13:28:41;;;;;;;14.35;10.68;;;19.40;99.90;;;;;;5073132;28;20044;-63